createdAt,value
2023-02-03T00:03:43.514Z,0.92
2023-02-03T00:14:31.032Z,0.91
2023-02-03T00:25:24.870Z,0.88
2023-02-03T00:36:09.062Z,0.81
2023-02-03T00:47:02.635Z,0.76
2023-02-03T00:58:11.250Z,0.68
2023-02-03T01:09:06.342Z,0.66
2023-02-03T01:20:11.524Z,0.63
2023-02-03T01:31:30.073Z,0.64
2023-02-03T01:42:14.690Z,0.57
2023-02-03T01:52:54.536Z,0.54
2023-02-03T02:03:44.990Z,0.52
2023-02-03T02:14:44.363Z,0.58
2023-02-03T02:25:31.545Z,0.58
2023-02-03T02:36:54.742Z,0.50
2023-02-03T02:48:04.458Z,0.43
2023-02-03T02:58:56.442Z,0.48
2023-02-03T03:09:17.712Z,0.44
2023-02-03T03:20:26.220Z,0.24
2023-02-03T03:31:41.036Z,0.11
2023-02-03T03:42:38.272Z,0.07
2023-02-03T03:53:22.167Z,-0.12
2023-02-03T04:04:21.030Z,-0.30
2023-02-03T04:15:11.389Z,-0.39
2023-02-03T04:25:55.965Z,-0.39
2023-02-03T04:36:25.688Z,-0.55
2023-02-03T04:47:12.343Z,-0.63
2023-02-03T04:58:11.933Z,-0.57
2023-02-03T05:09:14.608Z,-0.47
2023-02-03T05:19:38.935Z,-0.45
2023-02-03T05:30:14.795Z,-0.56
2023-02-03T05:40:57.408Z,-0.67
2023-02-03T05:51:31.235Z,-0.74
2023-02-03T06:02:27.154Z,-0.93
2023-02-03T06:13:05.850Z,-1.10
2023-02-03T06:23:53.159Z,-1.05
2023-02-03T06:35:00.425Z,-0.94
2023-02-03T06:45:37.874Z,-0.91
2023-02-03T06:56:13.918Z,-0.92
2023-02-03T07:06:52.994Z,-0.81
2023-02-03T07:17:29.472Z,-0.51
2023-02-03T07:28:14.196Z,-0.26
2023-02-03T07:38:25.421Z,0.03
2023-02-03T07:49:18.651Z,0.36
2023-02-03T07:59:32.981Z,0.86
2023-02-03T08:09:37.101Z,1.23
2023-02-03T08:19:44.329Z,1.35
2023-02-03T08:30:08.072Z,1.56
2023-02-03T08:40:27.961Z,1.82
2023-02-03T08:50:37.595Z,2.04
2023-02-03T09:00:53.972Z,2.31
2023-02-03T09:11:26.692Z,2.51
2023-02-03T09:21:44.072Z,2.71
2023-02-03T09:32:07.508Z,3.13
2023-02-03T09:42:51.453Z,3.59
2023-02-03T09:53:31.221Z,4.13
2023-02-03T10:04:28.503Z,4.43
2023-02-03T10:15:54.153Z,4.39
2023-02-03T10:26:32.758Z,4.39
2023-02-03T10:37:03.551Z,4.31
2023-02-03T10:48:03.145Z,4.15
2023-02-03T10:58:18.351Z,3.98
2023-02-03T11:08:35.080Z,3.65
2023-02-03T11:19:28.557Z,3.18
2023-02-03T11:30:18.509Z,2.52
2023-02-03T11:40:59.613Z,2.03
2023-02-03T11:51:40.795Z,1.78
2023-02-03T12:03:15.821Z,1.71
2023-02-03T12:14:29.603Z,1.49
2023-02-03T12:26:06.250Z,1.38
2023-02-03T12:37:02.070Z,1.35
2023-02-03T12:47:52.115Z,1.21
2023-02-03T12:58:42.764Z,1.22
2023-02-03T13:09:44.700Z,1.22
2023-02-03T13:20:36.397Z,1.19
2023-02-03T13:31:40.729Z,1.14
2023-02-03T13:42:59.716Z,1.17
2023-02-03T13:53:53.265Z,1.28
2023-02-03T14:05:03.357Z,1.28
2023-02-03T14:15:28.722Z,1.21
2023-02-03T14:25:59.622Z,1.21
2023-02-03T14:36:31.431Z,1.17
2023-02-03T14:46:59.199Z,1.17
2023-02-03T14:57:30.874Z,1.15
2023-02-03T15:07:47.937Z,1.10
2023-02-03T15:18:19.868Z,1.13
2023-02-03T15:28:29.534Z,1.19
2023-02-03T15:38:42.428Z,1.27
2023-02-03T15:49:04.411Z,1.46
2023-02-03T15:59:30.432Z,1.64
2023-02-03T16:09:45.563Z,1.77
2023-02-03T16:20:34.308Z,1.91
2023-02-03T16:31:23.140Z,2.06
2023-02-03T16:41:45.844Z,2.19
2023-02-03T16:51:50.126Z,2.22
2023-02-03T17:01:54.288Z,2.19
2023-02-03T17:11:58.567Z,2.13
2023-02-03T17:22:02.715Z,2.10
2023-02-03T17:32:07.363Z,2.09
2023-02-03T18:02:55.489Z,2.43
2023-02-03T18:13:01.341Z,2.53
2023-02-03T18:23:05.609Z,2.63
2023-02-03T18:33:12.572Z,2.70
2023-02-03T18:43:19.246Z,2.72
2023-02-03T18:53:26.076Z,2.68
2023-02-03T19:03:32.336Z,2.76
2023-02-03T19:13:37.707Z,2.76
2023-02-03T19:23:56.309Z,2.79
2023-02-03T19:34:02.460Z,2.81
2023-02-03T19:44:15.713Z,2.86
2023-02-03T19:54:26.540Z,2.91
2023-02-03T20:04:37.339Z,2.93
2023-02-03T20:14:48.981Z,2.95
2023-02-03T20:24:56.785Z,2.92
2023-02-03T20:35:07.416Z,2.83
2023-02-03T20:45:25.712Z,2.83
2023-02-03T20:55:32.793Z,2.88
2023-02-03T21:05:45.503Z,2.96
2023-02-03T21:16:06.306Z,2.98
2023-02-03T21:26:32.361Z,2.88
2023-02-03T21:36:39.391Z,2.78
2023-02-03T21:46:48.148Z,2.79
2023-02-03T21:56:55.517Z,2.83
2023-02-03T22:07:02.995Z,2.86
2023-02-03T22:17:08.290Z,2.80
2023-02-03T22:27:13.086Z,2.71
2023-02-03T22:37:17.075Z,2.65
2023-02-03T22:47:22.323Z,2.71
2023-02-03T22:57:26.290Z,2.80
2023-02-03T23:07:30.276Z,2.88
2023-02-03T23:17:37.114Z,2.80
2023-02-03T23:27:41.129Z,2.78
2023-02-03T23:37:45.823Z,2.78
2023-02-03T23:47:49.985Z,2.76
2023-02-03T23:58:16.123Z,2.81
